createdAt,value
2023-01-20T00:01:12.005Z,14.67
2023-01-20T00:03:42.478Z,12.80
2023-01-20T00:06:11.106Z,14.87
2023-01-20T00:08:39.791Z,17.20
2023-01-20T00:11:08.942Z,15.77
2023-01-20T00:13:37.863Z,15.93
2023-01-20T00:16:07.568Z,12.87
2023-01-20T00:18:35.982Z,15.10
2023-01-20T00:21:07.011Z,14.77
2023-01-20T00:23:35.103Z,16.77
2023-01-20T00:26:06.973Z,20.37
2023-01-20T00:28:35.613Z,15.40
2023-01-20T00:31:15.575Z,16.33
2023-01-20T00:33:44.788Z,17.43
2023-01-20T00:36:16.375Z,15.33
2023-01-20T00:38:44.700Z,16.10
2023-01-20T00:41:13.319Z,14.77
2023-01-20T00:43:41.796Z,15.07
2023-01-20T00:46:10.168Z,16.47
2023-01-20T00:48:38.393Z,11.30
2023-01-20T00:51:07.689Z,17.37
2023-01-20T00:53:37.698Z,13.90
2023-01-20T00:56:06.863Z,16.20
2023-01-20T00:58:35.244Z,17.40
2023-01-20T01:01:03.745Z,14.03
2023-01-20T01:03:32.197Z,25.47
2023-01-20T01:06:11.997Z,20.67
2023-01-20T01:08:41.674Z,30.33
2023-01-20T01:11:10.356Z,15.90
2023-01-20T01:13:39.352Z,27.57
2023-01-20T01:16:11.711Z,20.97
2023-01-20T01:18:40.513Z,17.97
2023-01-20T01:21:10.085Z,20.57
2023-01-20T01:23:38.178Z,22.33
2023-01-20T01:26:07.803Z,16.57
2023-01-20T01:28:35.914Z,21.00
2023-01-20T01:31:04.569Z,18.07
2023-01-20T01:33:33.219Z,17.37
2023-01-20T01:36:03.307Z,13.50
2023-01-20T01:38:31.783Z,12.40
2023-01-20T01:40:59.909Z,12.23
2023-01-20T01:43:31.400Z,14.50
2023-01-20T01:46:00.209Z,17.03
2023-01-20T01:48:32.711Z,13.17
2023-01-20T01:51:05.902Z,13.80
2023-01-20T01:53:40.940Z,12.67
2023-01-20T01:56:09.871Z,13.77
2023-01-20T01:58:43.248Z,14.30
2023-01-20T02:01:12.139Z,13.73
2023-01-20T02:03:45.953Z,12.90
2023-01-20T02:06:15.325Z,12.83
2023-01-20T02:08:44.212Z,15.83
2023-01-20T02:11:12.364Z,12.83
2023-01-20T02:13:42.131Z,14.57
2023-01-20T02:16:19.097Z,12.80
2023-01-20T02:19:00.761Z,15.07
2023-01-20T02:21:50.839Z,15.60
2023-01-20T02:24:58.536Z,14.97
2023-01-20T02:27:51.509Z,18.67
2023-01-20T02:30:50.158Z,19.47
2023-01-20T02:33:26.590Z,14.37
2023-01-20T02:35:59.656Z,12.13
2023-01-20T02:38:34.058Z,20.00
2023-01-20T02:41:10.688Z,14.83
2023-01-20T02:43:48.203Z,16.63
2023-01-20T02:46:25.275Z,14.63
2023-01-20T02:48:59.740Z,19.40
2023-01-20T02:51:33.001Z,13.67
2023-01-20T02:54:03.867Z,16.43
2023-01-20T02:56:35.835Z,12.57
2023-01-20T02:59:07.557Z,15.20
2023-01-20T03:01:40.679Z,18.40
2023-01-20T03:04:13.155Z,14.70
2023-01-20T03:06:47.648Z,21.57
2023-01-20T03:09:19.714Z,15.83
2023-01-20T03:11:54.590Z,15.67
2023-01-20T03:14:22.852Z,13.07
2023-01-20T03:16:51.257Z,13.70
2023-01-20T03:19:21.256Z,15.93
2023-01-20T03:21:49.833Z,18.23
2023-01-20T03:24:18.016Z,23.47
2023-01-20T03:26:46.250Z,19.93
2023-01-20T03:29:15.920Z,15.60
2023-01-20T03:31:47.827Z,19.00
2023-01-20T03:34:21.019Z,21.17
2023-01-20T03:36:50.202Z,21.37
2023-01-20T03:39:18.782Z,19.70
2023-01-20T03:42:00.524Z,21.73
2023-01-20T03:44:40.895Z,20.97
2023-01-20T03:47:17.685Z,18.63
2023-01-20T03:49:55.472Z,24.67
2023-01-20T03:52:47.959Z,21.20
2023-01-20T03:55:22.187Z,19.07
2023-01-20T03:57:54.243Z,20.70
2023-01-20T04:00:24.011Z,19.63
2023-01-20T04:02:54.427Z,22.23
2023-01-20T04:05:24.422Z,22.23
2023-01-20T04:07:55.282Z,18.50
2023-01-20T04:10:24.999Z,18.70
2023-01-20T04:12:53.253Z,21.07
2023-01-20T04:15:23.156Z,25.50
2023-01-20T04:17:51.550Z,20.77
2023-01-20T04:20:20.809Z,20.80
2023-01-20T04:22:53.353Z,21.93
2023-01-20T04:25:25.739Z,27.53
2023-01-20T04:27:53.839Z,22.87
2023-01-20T04:30:22.002Z,24.20
2023-01-20T04:32:50.325Z,24.63
2023-01-20T04:35:20.413Z,28.23
2023-01-20T04:37:49.858Z,21.70
2023-01-20T04:40:18.317Z,21.70
2023-01-20T04:42:46.430Z,22.87
2023-01-20T04:45:17.413Z,23.40
2023-01-20T04:47:46.016Z,19.87
2023-01-20T04:50:15.226Z,19.77
2023-01-20T04:52:43.711Z,24.57
2023-01-20T04:55:13.722Z,22.77
2023-01-20T04:57:42.137Z,21.10
2023-01-20T05:00:12.571Z,25.27
2023-01-20T05:02:40.683Z,22.77
2023-01-20T05:05:10.258Z,19.30
2023-01-20T05:07:38.476Z,22.07
2023-01-20T05:10:07.923Z,24.33
2023-01-20T05:12:37.691Z,24.77
2023-01-20T05:15:07.094Z,23.10
2023-01-20T05:17:35.140Z,26.10
2023-01-20T05:20:03.296Z,30.00
2023-01-20T05:22:33.147Z,26.20
2023-01-20T05:25:01.249Z,24.87
2023-01-20T05:27:29.332Z,23.43
2023-01-20T05:29:58.812Z,26.07
2023-01-20T05:32:26.845Z,26.97
2023-01-20T05:34:54.947Z,27.50
2023-01-20T05:37:23.030Z,26.00
2023-01-20T05:39:51.266Z,24.20
2023-01-20T05:42:19.451Z,29.37
2023-01-20T05:44:47.521Z,27.67
2023-01-20T05:47:17.076Z,25.17
2023-01-20T05:49:45.257Z,26.90
2023-01-20T05:52:13.583Z,28.13
2023-01-20T05:54:41.710Z,24.93
2023-01-20T05:57:09.904Z,24.60
2023-01-20T05:59:38.328Z,26.67
2023-01-20T06:02:06.444Z,23.50
2023-01-20T06:04:36.251Z,22.43
2023-01-20T06:07:04.348Z,27.80
2023-01-20T06:09:32.397Z,21.53
2023-01-20T06:12:00.526Z,26.47
2023-01-20T06:14:28.664Z,24.23
2023-01-20T06:16:56.817Z,22.97
2023-01-20T06:19:25.048Z,23.10
2023-01-20T06:21:54.655Z,21.63
2023-01-20T06:24:22.738Z,20.43
2023-01-20T06:26:52.068Z,22.77
2023-01-20T06:29:20.374Z,21.53
2023-01-20T06:31:48.667Z,27.60
2023-01-20T06:34:19.938Z,26.97
2023-01-20T06:36:48.064Z,25.17
2023-01-20T06:39:17.820Z,29.27
2023-01-20T06:41:46.402Z,25.93
2023-01-20T06:44:15.437Z,25.93
2023-01-20T06:46:43.573Z,21.23
2023-01-20T06:49:13.198Z,22.43
2023-01-20T06:51:41.766Z,27.17
2023-01-20T06:54:10.042Z,25.80
2023-01-20T06:56:39.780Z,23.87
2023-01-20T06:59:08.168Z,27.10
2023-01-20T07:01:37.902Z,24.67
2023-01-20T07:04:06.585Z,30.93
2023-01-20T07:06:38.260Z,27.80
2023-01-20T07:09:08.106Z,31.43
2023-01-20T07:11:37.347Z,33.67
2023-01-20T07:14:07.465Z,28.23
2023-01-20T07:16:36.049Z,23.17
2023-01-20T07:19:04.262Z,26.73
2023-01-20T07:21:32.545Z,26.57
2023-01-20T07:24:02.345Z,28.60
2023-01-20T07:26:31.082Z,28.33
2023-01-20T07:28:59.919Z,28.47
2023-01-20T07:31:31.272Z,31.97
2023-01-20T07:34:00.111Z,32.70
2023-01-20T07:36:28.975Z,33.33
2023-01-20T07:38:57.117Z,30.67
2023-01-20T07:41:25.423Z,27.03
2023-01-20T07:43:54.381Z,32.73
2023-01-20T07:46:23.246Z,31.30
2023-01-20T07:48:52.922Z,29.07
2023-01-20T07:51:21.355Z,32.60
2023-01-20T07:53:51.882Z,31.57
2023-01-20T07:56:22.380Z,29.83
2023-01-20T07:58:51.399Z,32.87
2023-01-20T08:01:21.665Z,28.77
2023-01-20T08:03:50.266Z,39.33
2023-01-20T08:06:21.497Z,38.10
2023-01-20T08:08:49.906Z,33.77
2023-01-20T08:11:19.389Z,32.50
2023-01-20T08:13:47.961Z,100.70
2023-01-20T08:16:18.017Z,76.10
2023-01-20T08:18:46.582Z,48.10
2023-01-20T08:21:23.829Z,117.20
2023-01-20T08:23:52.459Z,181.17
2023-01-20T08:26:20.806Z,52.10
2023-01-20T08:28:49.017Z,38.83
2023-01-20T08:31:21.542Z,37.70
2023-01-20T08:33:50.113Z,35.60
2023-01-20T08:36:20.480Z,38.67
2023-01-20T08:38:50.944Z,41.33
2023-01-20T08:41:22.746Z,38.43
2023-01-20T08:43:51.392Z,35.63
2023-01-20T08:46:21.080Z,35.57
2023-01-20T08:48:50.637Z,36.87
2023-01-20T08:51:21.267Z,37.80
2023-01-20T08:53:51.716Z,35.87
2023-01-20T08:56:20.868Z,34.67
2023-01-20T08:58:49.527Z,32.67
2023-01-20T09:01:21.112Z,32.40
2023-01-20T09:04:04.462Z,34.40
2023-01-20T09:06:39.122Z,35.77
2023-01-20T09:09:08.800Z,32.37
2023-01-20T09:11:37.448Z,36.50
2023-01-20T09:14:05.734Z,37.23
2023-01-20T09:16:34.139Z,35.30
2023-01-20T09:19:03.063Z,35.00
2023-01-20T09:21:31.188Z,36.67
2023-01-20T09:23:59.243Z,35.67
2023-01-20T09:26:38.562Z,32.27
2023-01-20T09:29:11.270Z,33.00
2023-01-20T09:31:44.158Z,31.97
2023-01-20T09:34:15.108Z,30.47
2023-01-20T09:36:43.402Z,34.57
2023-01-20T09:39:31.846Z,33.33
2023-01-20T09:42:22.768Z,32.30
2023-01-20T09:45:06.950Z,37.17
2023-01-20T09:47:43.096Z,32.00
2023-01-20T09:50:40.712Z,34.10
2023-01-20T09:53:15.574Z,35.27
2023-01-20T09:55:51.420Z,35.43
2023-01-20T09:58:31.450Z,32.33
2023-01-20T10:01:10.070Z,34.63
2023-01-20T10:03:48.497Z,28.83
2023-01-20T10:06:24.942Z,32.43
2023-01-20T10:09:05.496Z,30.30
2023-01-20T10:11:39.441Z,32.80
2023-01-20T10:14:16.779Z,31.30
2023-01-20T10:16:51.779Z,33.70
2023-01-20T10:19:27.009Z,35.50
2023-01-20T10:22:03.829Z,35.37
2023-01-20T10:24:36.979Z,33.07
2023-01-20T10:27:06.423Z,31.37
2023-01-20T10:29:39.030Z,29.93
2023-01-20T10:32:12.443Z,30.97
2023-01-20T10:34:46.128Z,28.00
2023-01-20T10:37:15.811Z,34.70
2023-01-20T10:39:49.216Z,32.53
2023-01-20T10:42:18.517Z,32.40
2023-01-20T10:44:50.911Z,33.90
2023-01-20T10:47:40.963Z,35.13
2023-01-20T10:50:32.149Z,28.40
2023-01-20T10:53:20.141Z,34.80
2023-01-20T10:55:59.774Z,35.23
2023-01-20T10:58:29.692Z,33.37
2023-01-20T11:01:04.085Z,27.10
2023-01-20T11:03:36.270Z,30.17
2023-01-20T11:06:05.181Z,25.27
2023-01-20T11:08:33.308Z,27.50
2023-01-20T11:11:11.507Z,28.80
2023-01-20T11:13:39.604Z,27.23
2023-01-20T11:16:17.319Z,33.70
2023-01-20T11:18:57.185Z,31.23
2023-01-20T11:21:26.127Z,29.23
2023-01-20T11:23:56.804Z,33.10
2023-01-20T11:26:28.417Z,32.37
2023-01-20T11:28:58.684Z,30.27
2023-01-20T11:31:39.884Z,31.80
2023-01-20T11:34:22.602Z,35.17
2023-01-20T11:36:51.570Z,31.33
2023-01-20T11:39:27.998Z,31.87
2023-01-20T11:42:13.159Z,29.90
2023-01-20T11:44:44.929Z,28.93
2023-01-20T11:47:28.495Z,25.23
2023-01-20T11:50:25.877Z,32.03
2023-01-20T11:52:54.047Z,28.03
2023-01-20T11:55:24.399Z,29.20
2023-01-20T11:57:56.578Z,28.97
2023-01-20T12:00:40.526Z,29.90
2023-01-20T12:03:35.727Z,26.57
2023-01-20T12:06:10.067Z,27.03
2023-01-20T12:08:48.390Z,28.07
2023-01-20T12:11:20.301Z,28.10
2023-01-20T12:14:18.195Z,29.07
2023-01-20T12:16:49.349Z,28.63
2023-01-20T12:19:23.674Z,26.30
2023-01-20T12:21:54.015Z,35.03
2023-01-20T12:24:38.721Z,30.67
2023-01-20T12:27:18.499Z,30.60
2023-01-20T12:29:48.400Z,30.80
2023-01-20T12:32:17.381Z,28.37
2023-01-20T12:34:47.171Z,42.47
2023-01-20T12:37:24.670Z,33.17
2023-01-20T12:40:19.405Z,30.13
2023-01-20T12:43:05.753Z,189.63
2023-01-20T12:46:11.365Z,211.97
2023-01-20T12:48:49.789Z,34.47
2023-01-20T12:51:33.339Z,30.43
2023-01-20T12:54:42.954Z,36.23
2023-01-20T12:57:31.508Z,55.47
2023-01-20T13:00:14.099Z,39.53
2023-01-20T13:03:04.334Z,30.77
2023-01-20T13:05:51.224Z,29.07
2023-01-20T13:08:25.647Z,30.20
2023-01-20T13:11:03.800Z,23.63
2023-01-20T13:13:55.973Z,24.93
2023-01-20T13:16:33.215Z,29.77
2023-01-20T13:19:09.749Z,27.13
2023-01-20T13:21:37.899Z,29.53
2023-01-20T13:24:08.262Z,30.93
2023-01-20T13:26:37.940Z,32.37
2023-01-20T13:29:06.160Z,28.97
2023-01-20T13:31:46.168Z,26.57
2023-01-20T13:34:35.712Z,23.13
2023-01-20T13:37:26.491Z,25.93
2023-01-20T13:39:58.021Z,24.63
2023-01-20T13:42:31.843Z,30.77
2023-01-20T13:45:33.026Z,32.57
2023-01-20T13:48:22.470Z,25.63
2023-01-20T13:50:51.748Z,26.53
2023-01-20T13:53:29.799Z,28.97
2023-01-20T13:56:27.516Z,32.50
2023-01-20T13:58:58.060Z,30.27
2023-01-20T14:01:26.910Z,32.10
2023-01-20T14:04:05.374Z,26.67
2023-01-20T14:06:36.092Z,30.93
2023-01-20T14:09:07.864Z,32.60
2023-01-20T14:11:50.181Z,32.40
2023-01-20T14:14:20.318Z,32.17
2023-01-20T14:16:48.569Z,34.00
2023-01-20T14:19:23.369Z,31.60
2023-01-20T14:21:54.592Z,24.67
2023-01-20T14:24:29.174Z,26.47
2023-01-20T14:27:11.900Z,27.77
2023-01-20T14:29:40.856Z,26.37
2023-01-20T14:32:22.288Z,36.67
2023-01-20T14:34:51.468Z,29.80
2023-01-20T14:37:28.663Z,32.27
2023-01-20T14:39:58.801Z,31.10
2023-01-20T14:42:31.102Z,28.60
2023-01-20T14:44:59.398Z,39.13
2023-01-20T14:47:28.282Z,28.53
2023-01-20T14:49:57.126Z,28.83
2023-01-20T14:52:29.554Z,30.83
2023-01-20T14:54:58.494Z,33.50
2023-01-20T14:57:30.982Z,34.13
2023-01-20T15:00:05.580Z,32.07
2023-01-20T15:02:36.175Z,41.43
2023-01-20T15:05:27.733Z,33.70
2023-01-20T15:08:26.088Z,35.07
2023-01-20T15:11:23.309Z,33.37
2023-01-20T15:14:10.913Z,31.67
2023-01-20T15:16:47.464Z,32.57
2023-01-20T15:19:34.661Z,34.43
2023-01-20T15:22:23.825Z,29.07
2023-01-20T15:24:52.490Z,31.17
2023-01-20T15:27:27.478Z,30.47
2023-01-20T15:30:14.325Z,30.03
2023-01-20T15:32:42.460Z,29.47
2023-01-20T15:35:14.475Z,33.83
2023-01-20T15:37:43.571Z,29.43
2023-01-20T15:40:16.714Z,31.03
2023-01-20T15:42:45.163Z,32.73
2023-01-20T15:45:15.869Z,35.67
2023-01-20T15:47:44.543Z,33.93
2023-01-20T15:50:18.103Z,29.70
2023-01-20T15:52:46.611Z,34.77
2023-01-20T15:55:15.663Z,29.60
2023-01-20T15:57:43.982Z,32.13
2023-01-20T16:00:20.919Z,32.57
2023-01-20T16:02:51.448Z,32.13
2023-01-20T16:05:19.589Z,32.93
2023-01-20T16:07:49.898Z,29.33
2023-01-20T16:10:19.227Z,33.50
2023-01-20T16:12:48.219Z,33.30
2023-01-20T16:15:17.881Z,29.20
2023-01-20T16:17:47.313Z,28.63
2023-01-20T16:20:21.918Z,33.27
2023-01-20T16:22:50.055Z,31.90
2023-01-20T16:25:18.619Z,31.53
2023-01-20T16:27:46.840Z,30.00
2023-01-20T16:30:18.310Z,34.83
2023-01-20T16:32:48.305Z,34.73
2023-01-20T16:35:17.865Z,30.90
2023-01-20T16:37:47.444Z,29.47
2023-01-20T16:40:17.788Z,31.00
2023-01-20T16:42:46.155Z,32.73
2023-01-20T16:45:24.670Z,32.43
2023-01-20T16:47:54.803Z,29.40
2023-01-20T16:50:23.125Z,30.90
2023-01-20T16:52:51.241Z,33.20
2023-01-20T16:55:20.177Z,38.40
2023-01-20T16:57:48.411Z,29.33
2023-01-20T17:00:19.204Z,31.67
2023-01-20T17:02:51.245Z,29.90
2023-01-20T17:05:22.833Z,33.80
2023-01-20T17:07:51.303Z,29.47
2023-01-20T17:10:20.382Z,36.13
2023-01-20T17:12:49.117Z,34.53
2023-01-20T17:15:17.381Z,35.40
2023-01-20T17:17:49.478Z,34.80
2023-01-20T17:20:18.438Z,40.37
2023-01-20T17:22:48.384Z,40.40
2023-01-20T17:25:18.132Z,40.30
2023-01-20T17:27:46.291Z,43.73
2023-01-20T17:30:16.833Z,37.30
2023-01-20T17:32:49.227Z,35.83
2023-01-20T17:35:17.662Z,35.57
2023-01-20T17:37:47.225Z,37.73
2023-01-20T17:40:16.968Z,39.40
2023-01-20T17:42:46.343Z,36.87
2023-01-20T17:45:14.703Z,37.27
2023-01-20T17:47:43.281Z,36.03
2023-01-20T17:50:12.118Z,36.97
2023-01-20T17:52:40.788Z,44.43
2023-01-20T17:55:11.478Z,41.40
2023-01-20T17:57:39.592Z,44.07
2023-01-20T18:00:09.491Z,31.03
2023-01-20T18:02:37.593Z,34.80
2023-01-20T18:05:06.840Z,32.23
2023-01-20T18:07:35.176Z,34.17
2023-01-20T18:10:03.305Z,34.67
2023-01-20T18:12:33.018Z,33.73
2023-01-20T18:15:01.258Z,38.73
2023-01-20T18:17:34.541Z,30.67
2023-01-20T18:20:02.642Z,31.57
2023-01-20T18:22:30.831Z,34.60
2023-01-20T18:24:58.978Z,32.03
2023-01-20T18:27:27.103Z,32.77
2023-01-20T18:29:56.604Z,31.93
2023-01-20T18:32:25.932Z,33.37
2023-01-20T18:34:54.041Z,28.73
2023-01-20T18:37:22.185Z,37.13
2023-01-20T18:39:50.261Z,32.17
2023-01-20T18:42:18.349Z,31.60
2023-01-20T18:44:46.570Z,31.10
2023-01-20T18:47:16.106Z,32.50
2023-01-20T18:49:44.174Z,33.23
2023-01-20T18:52:12.239Z,29.43
2023-01-20T18:54:40.366Z,26.57
2023-01-20T18:57:09.179Z,31.90
2023-01-20T18:59:37.401Z,35.50
2023-01-20T19:02:05.734Z,29.03
2023-01-20T19:04:35.753Z,30.00
2023-01-20T19:07:03.994Z,30.97
2023-01-20T19:09:32.073Z,34.17
2023-01-20T19:12:00.127Z,31.20
2023-01-20T19:14:28.190Z,31.37
2023-01-20T19:16:56.315Z,32.30
2023-01-20T19:19:24.668Z,35.13
2023-01-20T19:21:54.250Z,32.80
2023-01-20T19:24:22.805Z,31.90
2023-01-20T19:26:51.226Z,33.67
2023-01-20T19:29:19.750Z,36.57
2023-01-20T19:31:49.066Z,32.50
2023-01-20T19:34:17.335Z,32.83
2023-01-20T19:36:46.407Z,36.00
2023-01-20T19:39:16.213Z,32.97
2023-01-20T19:41:44.510Z,31.03
2023-01-20T19:44:13.932Z,31.60
2023-01-20T19:46:42.214Z,30.03
2023-01-20T19:49:11.814Z,28.67
2023-01-20T19:51:40.371Z,32.47
2023-01-20T19:54:08.653Z,29.53
2023-01-20T19:56:38.190Z,30.00
2023-01-20T19:59:07.198Z,29.63
2023-01-20T20:01:36.926Z,29.27
2023-01-20T20:04:07.272Z,34.50
2023-01-20T20:06:37.967Z,29.67
2023-01-20T20:09:08.529Z,30.03
2023-01-20T20:11:38.894Z,33.33
2023-01-20T20:14:08.524Z,34.27
2023-01-20T20:16:37.964Z,33.20
2023-01-20T20:19:06.770Z,29.80
2023-01-20T20:21:35.650Z,30.30
2023-01-20T20:24:05.431Z,30.30
2023-01-20T20:26:35.379Z,32.03
2023-01-20T20:29:06.882Z,31.10
2023-01-20T20:31:37.615Z,28.17
2023-01-20T20:34:08.383Z,31.37
2023-01-20T20:36:36.797Z,28.40
2023-01-20T20:39:06.000Z,27.70
2023-01-20T20:41:35.488Z,28.80
2023-01-20T20:44:05.725Z,25.43
2023-01-20T20:46:34.276Z,32.47
2023-01-20T20:49:02.643Z,28.37
2023-01-20T20:51:32.179Z,33.23
2023-01-20T20:54:02.529Z,30.97
2023-01-20T20:56:32.375Z,34.47
2023-01-20T20:59:03.367Z,29.97
2023-01-20T21:01:34.813Z,27.20
2023-01-20T21:04:03.311Z,30.43
2023-01-20T21:06:32.262Z,35.40
2023-01-20T21:09:01.044Z,25.43
2023-01-20T21:11:29.918Z,26.47
2023-01-20T21:13:58.275Z,24.97
2023-01-20T21:16:28.085Z,28.10
2023-01-20T21:18:59.416Z,27.37
2023-01-20T21:21:28.927Z,25.20
2023-01-20T21:23:58.965Z,26.30
2023-01-20T21:26:30.450Z,27.47
2023-01-20T21:29:01.615Z,25.40
2023-01-20T21:31:31.078Z,32.17
2023-01-20T21:34:02.763Z,32.17
2023-01-20T21:36:33.868Z,27.73
2023-01-20T21:39:02.046Z,28.50
2023-01-20T21:41:30.191Z,30.97
2023-01-20T21:44:15.834Z,25.50
2023-01-20T21:46:44.035Z,26.43
2023-01-20T21:49:31.176Z,29.40
2023-01-20T21:52:25.620Z,46.77
2023-01-20T21:54:56.196Z,26.63
2023-01-20T21:57:25.180Z,30.27
2023-01-20T21:59:56.009Z,27.20
2023-01-20T22:02:24.676Z,24.50
2023-01-20T22:04:54.740Z,27.13
2023-01-20T22:07:28.715Z,32.63
2023-01-20T22:09:58.258Z,28.97
2023-01-20T22:12:33.591Z,24.93
2023-01-20T22:15:06.395Z,26.80
2023-01-20T22:17:37.707Z,28.40
2023-01-20T22:20:08.550Z,25.03
2023-01-20T22:22:36.652Z,23.47
2023-01-20T22:25:05.085Z,23.57
2023-01-20T22:27:33.159Z,23.27
2023-01-20T22:30:01.222Z,23.60
2023-01-20T22:32:29.343Z,24.83
2023-01-20T22:34:57.466Z,24.90
2023-01-20T22:37:27.114Z,24.03
2023-01-20T22:39:55.915Z,24.60
2023-01-20T22:42:24.119Z,22.67
2023-01-20T22:44:52.415Z,20.47
2023-01-20T22:47:20.473Z,20.67
2023-01-20T22:49:48.580Z,21.53
2023-01-20T22:52:16.644Z,23.13
2023-01-20T22:54:46.106Z,21.83
2023-01-20T22:57:14.191Z,23.03
2023-01-20T22:59:42.367Z,22.13
2023-01-20T23:02:10.543Z,29.20
2023-01-20T23:04:38.641Z,28.57
2023-01-20T23:07:06.883Z,24.30
2023-01-20T23:09:34.977Z,24.97
2023-01-20T23:12:04.785Z,25.30
2023-01-20T23:14:50.153Z,22.37
2023-01-20T23:17:18.209Z,20.90
2023-01-20T23:19:46.289Z,19.87
2023-01-20T23:22:14.487Z,20.77
2023-01-20T23:24:42.539Z,25.10
2023-01-20T23:27:11.960Z,19.30
2023-01-20T23:29:40.088Z,23.10
2023-01-20T23:32:08.586Z,22.13
2023-01-20T23:34:36.681Z,25.30
2023-01-20T23:37:04.729Z,20.53
2023-01-20T23:39:32.897Z,19.80
2023-01-20T23:42:00.989Z,21.30
2023-01-20T23:44:30.488Z,18.23
2023-01-20T23:46:58.739Z,18.87
2023-01-20T23:49:26.860Z,15.87
2023-01-20T23:51:56.432Z,15.90
2023-01-20T23:54:27.288Z,15.20
2023-01-20T23:56:55.555Z,15.60
2023-01-20T23:59:23.765Z,18.90
